Time;durP1;ratioP1;P1;durP2;ratioP2;P2;SDS_P1;SDS_P2;PMS_P1;PMS_P2;Temp;Humidity;BMP_temperature;BMP_pressure;BME280_temperature;BME280_humidity;BME280_pressure;Samples;Min_cycle;Max_cycle;Signal;HPM_P1;HPM_P2
2021/01/27 00:00:46;;;;;;;4.00;3.03;;;2.80;79.80;;;1.84;63.18;94689.28;5051522;28;20250;-84
2021/01/27 00:03:13;;;;;;;3.38;3.00;;;2.70;79.70;;;1.85;63.21;94690.94;5034713;28;20290;-83
2021/01/27 00:05:51;;;;;;;3.78;2.83;;;2.70;79.80;;;1.85;62.65;94693.50;5050199;28;20259;-83
2021/01/27 00:08:20;;;;;;;3.55;3.10;;;2.70;79.90;;;1.83;62.83;94690.25;5051702;28;20660;-84
2021/01/27 00:10:48;;;;;;;4.28;3.50;;;2.70;79.60;;;1.76;63.04;94692.59;5018717;28;20254;-84
2021/01/27 00:13:19;;;;;;;5.63;3.75;;;2.60;80.40;;;1.78;63.23;94690.66;5034122;28;20313;-84
2021/01/27 00:15:48;;;;;;;4.47;3.60;;;2.60;79.60;;;1.76;63.24;94688.22;5050183;28;20236;-84
2021/01/27 00:18:17;;;;;;;4.68;3.33;;;2.60;79.70;;;1.76;63.39;94684.84;5050395;28;20279;-84
2021/01/27 00:20:44;;;;;;;4.47;3.10;;;2.60;79.60;;;1.76;63.26;94690.03;5035268;28;20220;-85
2021/01/27 00:23:11;;;;;;;4.93;3.92;;;2.60;79.60;;;1.74;63.42;94689.34;5017497;28;20214;-84
2021/01/27 00:25:39;;;;;;;4.88;3.65;;;2.60;79.80;;;1.75;63.31;94698.72;5049701;28;20212;-84
2021/01/27 00:28:08;;;;;;;4.80;3.67;;;2.60;79.80;;;1.69;63.18;94681.19;5034541;28;20204;-84
2021/01/27 00:30:42;;;;;;;4.88;3.58;;;2.60;79.80;;;1.74;63.14;94684.16;5047952;28;20607;-83
2021/01/27 00:33:12;;;;;;;4.65;3.47;;;2.50;79.80;;;1.74;63.28;94687.56;5063559;28;20195;-83
2021/01/27 00:35:46;;;;;;;4.88;3.95;;;2.50;79.70;;;1.72;63.29;94679.16;5011283;28;665421;-84
2021/01/27 00:38:14;;;;;;;4.72;3.53;;;2.50;79.70;;;1.72;63.13;94680.91;5051357;28;20180;-83
2021/01/27 00:40:41;;;;;;;6.20;3.80;;;2.50;79.60;;;1.71;63.08;94687.03;5034804;28;20242;-84
2021/01/27 00:43:08;;;;;;;4.63;3.42;;;2.50;79.60;;;1.70;63.07;94690.59;5051896;28;20231;-84
2021/01/27 00:45:35;;;;;;;5.45;3.70;;;2.50;79.60;;;1.69;62.97;94696.72;5018212;28;20219;-84
2021/01/27 00:48:03;;;;;;;5.20;3.50;;;2.50;79.60;;;1.65;63.11;94703.94;5051467;28;20662;-83
2021/01/27 00:50:30;;;;;;;4.68;3.67;;;2.50;79.50;;;1.60;63.16;94696.59;5051803;28;20238;-84
2021/01/27 00:52:57;;;;;;;4.00;3.10;;;2.50;79.50;;;1.60;62.95;94703.56;5018739;28;20196;-85
2021/01/27 00:55:30;;;;;;;6.35;4.07;;;2.50;79.40;;;1.56;62.86;94704.78;5019691;28;20216;-85
2021/01/27 00:58:00;;;;;;;5.07;3.58;;;2.50;79.50;;;1.54;62.98;94704.94;5034915;28;20210;-83
2021/01/27 01:00:37;;;;;;;4.40;3.40;;;2.50;79.30;;;1.50;62.86;94711.34;5035332;28;20266;-84
2021/01/27 01:03:10;;;;;;;3.58;2.90;;;2.40;79.40;;;1.47;63.13;94719.38;5035604;28;20188;-84
2021/01/27 01:05:42;;;;;;;7.18;3.50;;;2.40;79.20;;;1.42;62.83;94713.81;5051300;28;20223;-84
2021/01/27 01:08:15;;;;;;;5.18;3.72;;;2.40;79.40;;;1.41;63.12;94712.19;5034499;28;20690;-82
2021/01/27 01:10:50;;;;;;;4.63;3.50;;;2.30;79.60;;;1.41;63.22;94725.09;5051382;28;20236;-84
2021/01/27 01:13:24;;;;;;;5.03;3.30;;;2.30;79.50;;;1.40;63.04;94718.28;5034539;28;20192;-84
2021/01/27 01:15:51;;;;;;;3.95;2.63;;;2.30;79.30;;;1.39;63.03;94724.41;5035181;28;20220;-83
2021/01/27 01:18:18;;;;;;;4.18;3.42;;;2.30;79.10;;;1.37;62.74;94726.34;5034447;28;20254;-84
2021/01/27 01:20:47;;;;;;;3.80;3.00;;;2.30;79.20;;;1.28;62.87;94718.47;5034314;28;20223;-84
2021/01/27 01:23:20;;;;;;;4.95;3.63;;;2.30;79.20;;;1.34;63.17;94729.19;5061703;28;20203;-84
2021/01/27 01:25:48;;;;;;;4.22;3.03;;;2.20;79.10;;;1.32;63.05;94728.50;5035029;28;20589;-84
2021/01/27 01:28:17;;;;;;;5.03;3.50;;;2.20;79.20;;;1.28;62.93;94713.31;5050987;28;20196;-84
2021/01/27 01:30:46;;;;;;;3.85;2.90;;;2.20;79.20;;;1.31;62.82;94719.94;5049884;28;20216;-84
2021/01/27 01:33:25;;;;;;;3.83;3.05;;;2.20;79.10;;;1.28;62.73;94712.47;5033849;28;20201;-84
2021/01/27 01:35:52;;;;;;;3.30;2.70;;;2.20;79.30;;;1.28;62.79;94720.22;5052711;28;20231;-84
2021/01/27 01:38:20;;;;;;;5.32;3.97;;;2.20;79.10;;;1.24;63.20;94716.28;5054639;28;20200;-84
2021/01/27 01:40:59;;;;;;;5.95;4.22;;;2.10;79.20;;;1.20;62.87;94715.75;5054235;28;20314;-84
2021/01/27 01:43:40;;;;;;;4.53;3.70;;;2.10;79.40;;;1.17;62.99;94702.31;5038752;28;20191;-84
2021/01/27 01:46:14;;;;;;;5.10;3.70;;;2.10;79.50;;;1.16;62.73;94709.25;5038355;28;20224;-84
2021/01/27 01:49:02;;;;;;;4.90;3.50;;;2.20;79.40;;;1.15;62.92;94714.53;5054482;28;20180;-84
2021/01/27 01:51:45;;;;;;;3.97;3.15;;;2.10;79.40;;;1.10;62.40;94713.19;5037579;28;20289;-84
2021/01/27 01:54:31;;;;;;;4.43;3.38;;;2.00;79.40;;;1.07;62.87;94715.25;5074127;28;20254;-84
2021/01/27 01:57:06;;;;;;;4.50;3.13;;;2.00;79.30;;;1.05;62.70;94711.97;5050558;28;20215;-84
2021/01/27 01:59:38;;;;;;;6.38;4.18;;;2.00;79.00;;;0.96;63.12;94700.69;5069370;28;20703;-84
2021/01/27 02:02:08;;;;;;;6.18;4.32;;;2.00;79.90;;;1.01;62.86;94703.69;5035724;28;20196;-83
2021/01/27 02:04:46;;;;;;;5.05;3.80;;;2.00;79.20;;;1.00;62.97;94715.00;5035263;28;20211;-84
2021/01/27 02:07:13;;;;;;;4.35;3.47;;;1.90;79.10;;;0.96;62.91;94705.88;5047790;28;20199;-83
2021/01/27 02:09:39;;;;;;;4.40;3.30;;;1.90;79.00;;;0.95;62.76;94709.41;5034774;28;20219;-84
2021/01/27 02:12:50;;;;;;;4.53;3.40;;;1.90;78.90;;;0.92;62.77;94710.50;5067895;28;20210;-83
2021/01/27 02:15:57;;;;;;;4.57;3.58;;;1.90;79.20;;;0.89;62.70;94707.38;5053385;28;20227;-84
2021/01/27 02:19:01;;;;;;;4.85;3.63;;;1.90;79.20;;;0.81;62.96;94710.66;5034126;28;20259;-84
2021/01/27 02:21:53;;;;;;;5.38;3.83;;;1.80;79.10;;;0.79;62.94;94704.78;5066448;28;20255;-82
2021/01/27 02:25:10;;;;;;;5.95;3.90;;;1.80;79.20;;;0.77;62.85;94717.03;5048062;28;20253;-83
2021/01/27 02:27:48;;;;;;;6.10;3.85;;;1.80;79.00;;;0.73;63.04;94718.25;5047922;28;20199;-83
2021/01/27 02:30:39;;;;;;;3.97;3.40;;;1.70;79.00;;;0.67;62.87;94708.47;5060515;28;20220;-83
2021/01/27 02:33:44;;;;;;;5.95;4.03;;;1.70;79.00;;;0.70;62.86;94713.38;5050214;28;20207;-83
2021/01/27 02:36:23;;;;;;;4.35;3.08;;;1.70;79.20;;;0.66;62.98;94710.25;5052986;28;20311;-84
2021/01/27 02:39:18;;;;;;;5.03;3.85;;;1.60;78.90;;;0.68;62.78;94717.84;5058849;28;20222;-83
2021/01/27 02:42:21;;;;;;;4.10;3.13;;;1.60;79.40;;;0.68;62.80;94717.84;5031962;28;20208;-83
2021/01/27 02:44:59;;;;;;;4.15;3.10;;;1.60;79.10;;;0.66;63.03;94709.41;5075980;28;20269;-83
2021/01/27 02:47:37;;;;;;;5.43;3.78;;;1.60;79.00;;;0.66;62.90;94712.81;5049186;28;20215;-83
2021/01/27 02:50:12;;;;;;;5.78;3.65;;;1.60;79.10;;;0.63;62.67;94708.75;5049754;28;20282;-83
2021/01/27 02:52:52;;;;;;;5.18;3.38;;;1.60;79.20;;;0.63;63.05;94703.59;5052287;28;20184;-84
2021/01/27 02:55:30;;;;;;;5.15;3.45;;;1.60;79.20;;;0.67;62.82;94706.69;5053055;28;20208;-84
2021/01/27 02:58:26;;;;;;;5.68;3.70;;;1.60;79.10;;;0.68;62.91;94707.53;5052497;28;20219;-83
2021/01/27 03:01:05;;;;;;;7.00;4.47;;;1.60;79.30;;;0.67;62.86;94708.47;5035932;28;20224;-82
2021/01/27 03:03:41;;;;;;;4.88;3.63;;;1.60;79.30;;;0.69;63.00;94706.56;5019879;28;20204;-83
2021/01/27 03:06:13;;;;;;;4.78;3.60;;;1.60;79.40;;;0.69;63.03;94712.53;5036120;28;20234;-84
2021/01/27 03:09:10;;;;;;;5.60;3.80;;;1.60;79.40;;;0.70;62.88;94708.22;5043999;28;20255;-83
2021/01/27 03:11:37;;;;;;;4.03;2.90;;;1.60;79.50;;;0.70;62.73;94710.78;5029928;28;20239;-83
2021/01/27 03:14:08;;;;;;;5.13;3.88;;;1.60;79.30;;;0.73;62.82;94711.34;5014710;28;20553;-83
2021/01/27 03:16:45;;;;;;;5.30;3.75;;;1.60;79.40;;;0.73;62.84;94713.09;5030364;28;20323;-84
2021/01/27 03:19:23;;;;;;;5.00;3.80;;;1.60;79.50;;;0.71;62.87;94704.66;5034080;28;20665;-83
2021/01/27 03:21:59;;;;;;;4.72;3.78;;;1.60;79.60;;;0.71;62.82;94710.66;5034934;28;20199;-84
2021/01/27 03:24:33;;;;;;;5.07;3.80;;;1.60;79.50;;;0.72;63.02;94709.69;5051361;28;20204;-84
2021/01/27 03:27:19;;;;;;;4.70;3.35;;;1.60;79.30;;;0.68;62.63;94704.94;5036200;28;20227;-84
2021/01/27 03:29:55;;;;;;;5.63;3.25;;;1.60;79.30;;;0.68;62.62;94713.47;5052128;28;20323;-83
2021/01/27 03:32:32;;;;;;;4.30;3.22;;;1.60;79.00;;;0.59;62.51;94699.63;5036389;28;20570;-84
2021/01/27 03:35:05;;;;;;;4.50;3.42;;;1.50;78.90;;;0.58;62.52;94707.53;5052589;28;20686;-83
2021/01/27 03:37:44;;;;;;;6.00;3.40;;;1.50;78.90;;;0.54;62.48;94700.97;5052622;28;20203;-84
2021/01/27 03:40:14;;;;;;;4.15;3.33;;;1.50;78.80;;;0.49;62.61;94711.72;5052063;28;20217;-84
2021/01/27 03:43:10;;;;;;;3.90;3.22;;;1.50;78.60;;;0.43;62.80;94710.50;5035767;28;20196;-84
2021/01/27 03:45:47;;;;;;;4.55;3.40;;;1.40;78.70;;;0.31;63.02;94698.66;5051806;28;20755;-84
2021/01/27 03:48:28;;;;;;;5.00;3.63;;;1.40;78.60;;;0.30;62.89;94700.41;5052023;28;20202;-84
2021/01/27 03:50:58;;;;;;;4.05;3.08;;;1.40;78.70;;;0.27;62.67;94715.34;5035893;28;20231;-83
2021/01/27 03:53:27;;;;;;;3.28;2.83;;;1.30;78.50;;;0.25;62.74;94720.66;5058248;28;20200;-84
2021/01/27 03:56:16;;;;;;;3.38;2.75;;;1.30;78.50;;;0.19;62.68;94728.13;5051816;28;20212;-83
2021/01/27 03:58:45;;;;;;;3.38;2.60;;;1.20;78.60;;;0.17;62.85;94735.97;5035421;28;20222;-83
2021/01/27 04:01:16;;;;;;;4.85;2.90;;;1.20;78.40;;;0.13;62.83;94727.66;5035821;28;20690;-83
2021/01/27 04:03:46;;;;;;;3.58;2.90;;;1.20;78.60;;;0.12;63.41;94725.22;5034588;28;20200;-83
2021/01/27 04:06:13;;;;;;;4.63;2.72;;;1.20;78.70;;;0.06;62.66;94718.84;5035453;28;20295;-83
2021/01/27 04:08:40;;;;;;;3.13;2.83;;;1.20;78.70;;;0.12;62.92;94738.97;5034742;28;20278;-84
2021/01/27 04:11:09;;;;;;;3.90;2.83;;;1.10;78.60;;;0.11;63.15;94737.31;5035766;28;20298;-83
2021/01/27 04:13:36;;;;;;;3.63;2.97;;;1.10;78.60;;;0.09;62.76;94730.66;5035067;28;20258;-84
2021/01/27 04:16:04;;;;;;;3.92;3.10;;;1.10;78.60;;;0.08;63.04;94729.03;5052150;28;20203;-84
2021/01/27 04:18:32;;;;;;;3.08;2.70;;;1.10;78.70;;;0.06;62.75;94723.19;5035170;28;20238;-84
2021/01/27 04:20:58;;;;;;;3.70;2.80;;;1.10;78.60;;;0.05;62.75;94735.28;5017433;28;20341;-83
2021/01/27 04:23:25;;;;;;;3.30;2.65;;;1.10;78.60;;;0.03;62.87;94728.63;5049765;28;20717;-84
2021/01/27 04:25:52;;;;;;;5.28;2.85;;;1.00;78.60;;;0.01;62.98;94727.94;5029897;28;20230;-83
2021/01/27 04:28:19;;;;;;;3.45;2.90;;;1.00;78.60;;;-0.03;62.96;94723.03;5073257;28;20246;-85
2021/01/27 04:30:46;;;;;;;3.45;2.70;;;1.00;78.60;;;0.00;62.91;94724.53;5049230;28;20273;-83
2021/01/27 04:33:12;;;;;;;3.10;2.60;;;1.00;78.60;;;-0.01;62.88;94722.91;5058072;28;20572;-84
2021/01/27 04:35:41;;;;;;;3.33;2.58;;;1.00;78.60;;;-0.04;62.73;94715.41;5033492;28;20224;-83
2021/01/27 04:38:09;;;;;;;4.20;2.97;;;1.00;78.60;;;-0.03;62.80;94729.94;5055988;28;20800;-83
2021/01/27 04:40:46;;;;;;;3.60;2.75;;;0.90;78.50;;;-0.09;62.95;94725.31;5048323;28;20274;-84
2021/01/27 04:43:25;;;;;;;3.63;2.80;;;0.90;78.70;;;-0.10;62.84;94721.91;5030201;28;20630;-84
2021/01/27 04:46:18;;;;;;;3.13;2.17;;;0.90;78.60;;;-0.12;62.87;94718.66;5047755;28;20365;-84
2021/01/27 04:49:00;;;;;;;2.70;2.30;;;0.90;78.50;;;-0.24;62.85;94706.81;5071791;28;20204;-82
2021/01/27 04:51:39;;;;;;;3.72;2.65;;;0.90;78.60;;;-0.23;62.86;94717.00;5068886;28;20259;-84
2021/01/27 04:54:15;;;;;;;3.85;2.85;;;0.90;78.50;;;-0.22;62.58;94718.63;5083022;28;20235;-84
2021/01/27 04:56:52;;;;;;;4.03;2.60;;;0.80;78.20;;;-0.25;62.93;94724.03;5050713;28;20241;-84
2021/01/27 04:59:57;;;;;;;3.17;2.47;;;0.80;78.30;;;-0.28;62.51;94718.31;5066154;28;20279;-83
2021/01/27 05:03:07;;;;;;;2.63;2.40;;;0.80;78.60;;;-0.34;62.79;94714.53;5048073;28;20249;-84
2021/01/27 05:05:44;;;;;;;3.22;2.35;;;0.70;78.30;;;-0.37;62.81;94718.16;5046077;28;20601;-84
2021/01/27 05:08:34;;;;;;;2.40;2.20;;;0.70;78.20;;;-0.39;62.74;94724.38;5040757;28;20585;-84
2021/01/27 05:11:05;;;;;;;2.70;2.28;;;0.70;78.40;;;-0.39;62.73;94726.97;5051045;28;20231;-84
2021/01/27 05:13:40;;;;;;;2.03;1.73;;;0.70;78.20;;;-0.40;62.59;94723.56;5036075;28;20589;-83
2021/01/27 05:16:21;;;;;;;2.10;1.90;;;0.70;78.30;;;-0.40;62.88;94735.66;5035451;28;20219;-84
2021/01/27 05:18:57;;;;;;;3.78;1.80;;;0.70;78.30;;;-0.41;62.65;94721.94;5052535;28;20195;-84
2021/01/27 05:21:41;;;;;;;2.15;1.92;;;0.60;78.40;;;-0.41;62.88;94728.88;5053929;28;20215;-84
2021/01/27 05:24:08;;;;;;;2.00;1.80;;;0.60;78.50;;;-0.40;63.21;94723.56;5053224;28;20196;-84
2021/01/27 05:26:56;;;;;;;3.25;2.15;;;0.60;78.40;;;-0.39;62.65;94716.66;5036607;28;20223;-84
2021/01/27 05:29:32;;;;;;;2.70;2.40;;;0.60;78.50;;;-0.38;62.95;94713.13;5054268;28;20196;-83
2021/01/27 05:32:08;;;;;;;2.80;1.90;;;0.60;78.50;;;-0.37;62.95;94715.56;5038741;28;20257;-83
2021/01/27 05:34:40;;;;;;;1.98;1.70;;;0.70;78.60;;;-0.41;62.89;94716.78;5019890;28;20196;-84
2021/01/27 05:37:15;;;;;;;2.92;2.00;;;0.70;78.60;;;-0.34;62.83;94727.41;5038262;28;20187;-84
2021/01/27 05:39:44;;;;;;;2.30;1.88;;;0.70;78.70;;;-0.33;63.09;94718.72;5038376;28;20344;-84
2021/01/27 05:42:28;;;;;;;3.10;2.20;;;0.70;78.60;;;-0.31;62.85;94713.44;5038248;28;20227;-84
2021/01/27 05:45:20;;;;;;;1.90;1.75;;;0.70;78.70;;;-0.28;62.82;94716.59;5038439;28;20220;-84
2021/01/27 05:47:48;;;;;;;2.03;1.80;;;0.70;78.60;;;-0.34;62.95;94710.16;5044460;28;20211;-85
2021/01/27 05:50:30;;;;;;;2.50;2.08;;;0.70;78.60;;;-0.27;62.83;94718.22;5038110;28;20253;-86
2021/01/27 05:53:12;;;;;;;2.50;2.00;;;0.70;78.70;;;-0.25;63.09;94718.06;5038813;28;20210;-85
2021/01/27 05:56:17;;;;;;;2.42;1.92;;;0.70;78.80;;;-0.26;62.69;94721.59;5054723;28;20237;-86
2021/01/27 05:58:58;;;;;;;2.30;1.85;;;0.70;78.80;;;-0.30;62.93;94712.50;5038336;28;20184;-86
2021/01/27 06:01:43;;;;;;;2.00;1.80;;;0.80;78.70;;;-0.25;62.83;94720.66;5037580;28;20219;-85
2021/01/27 06:04:10;;;;;;;2.72;2.15;;;0.70;78.70;;;-0.23;63.02;94716.16;5029553;28;20191;-86
2021/01/27 06:06:49;;;;;;;3.67;2.30;;;0.70;78.60;;;-0.21;62.77;94724.59;5071305;28;20212;-86
2021/01/27 06:09:50;;;;;;;2.38;2.00;;;0.70;78.80;;;-0.23;63.40;94717.00;5070119;28;20553;-85
2021/01/27 06:12:20;;;;;;;2.05;1.70;;;0.70;78.90;;;-0.21;62.84;94719.44;5006609;28;20221;-85
2021/01/27 06:15:29;;;;;;;3.47;2.10;;;0.90;78.80;;;-0.26;62.73;94713.88;5071605;28;20749;-85
2021/01/27 06:17:56;;;;;;;2.30;1.80;;;0.80;78.90;;;-0.25;62.45;94718.06;5037090;28;20270;-85
2021/01/27 06:20:35;;;;;;;2.15;1.75;;;0.80;78.70;;;-0.23;62.58;94711.84;5054409;28;20274;-86
2021/01/27 06:23:46;;;;;;;2.80;1.70;;;0.80;78.80;;;-0.23;62.60;94711.84;5050227;28;20234;-86
2021/01/27 06:26:54;;;;;;;2.63;2.05;;;0.80;78.80;;;-0.20;62.64;94711.56;4978320;28;20762;-86
2021/01/27 06:29:56;;;;;;;2.22;1.75;;;0.80;78.80;;;-0.19;62.87;94709.81;5035586;28;20199;-84
2021/01/27 06:32:48;;;;;;;2.63;2.38;;;0.80;78.60;;;-0.20;62.59;94705.59;5068456;28;20191;-83
2021/01/27 06:36:12;;;;;;;2.33;2.00;;;0.80;78.80;;;-0.22;62.75;94700.59;5065231;28;20287;-84
2021/01/27 06:39:17;;;;;;;2.83;2.30;;;0.80;78.80;;;-0.21;62.99;94703.97;4995021;28;20686;-84
2021/01/27 06:42:23;;;;;;;3.50;3.20;;;0.80;78.80;;;-0.20;62.64;94696.09;4999767;28;20284;-84
2021/01/27 06:45:15;;;;;;;3.15;2.53;;;0.80;78.70;;;-0.21;62.79;94702.22;5082461;28;20222;-84
2021/01/27 06:48:15;;;;;;;3.90;3.53;;;0.80;78.70;;;-0.24;62.62;94694.75;5064892;28;20200;-84
2021/01/27 06:51:36;;;;;;;2.70;2.50;;;0.80;78.80;;;-0.24;62.78;94694.75;5050539;28;20243;-83
2021/01/27 06:54:18;;;;;;;2.70;2.30;;;0.80;78.80;;;-0.20;62.84;94701.25;5029820;28;20189;-83
2021/01/27 06:57:09;;;;;;;2.13;1.92;;;0.80;78.70;;;-0.19;62.76;94695.16;5051794;28;20604;-84
2021/01/27 07:00:03;;;;;;;2.10;1.73;;;0.80;78.70;;;-0.15;62.75;94689.75;5033487;28;20220;-85
2021/01/27 07:02:58;;;;;;;2.92;1.70;;;0.80;78.70;;;-0.15;63.11;94695.72;5051316;28;20449;-84
2021/01/27 07:06:21;;;;;;;2.00;1.88;;;0.80;78.70;;;-0.17;63.28;94695.06;5065725;28;20251;-84
2021/01/27 07:09:09;;;;;;;2.17;1.75;;;0.80;78.90;;;-0.13;63.09;94704.13;5081034;28;20680;-84
2021/01/27 07:12:20;;;;;;;2.00;1.80;;;0.90;78.70;;;-0.12;62.62;94702.38;5050919;28;20235;-84
2021/01/27 07:15:38;;;;;;;1.77;1.48;;;0.90;78.90;;;-0.12;62.97;94703.19;5044460;28;20227;-84
2021/01/27 07:18:35;;;;;;;2.00;1.77;;;0.90;78.90;;;-0.10;62.70;94709.03;5062046;28;20571;-85
2021/01/27 07:21:12;;;;;;;2.17;1.60;;;0.90;78.80;;;-0.08;62.82;94712.28;5031406;28;20212;-83
2021/01/27 07:24:06;;;;;;;1.92;1.60;;;0.90;78.90;;;-0.07;63.02;94705.38;5052160;28;20732;-84
2021/01/27 07:26:49;;;;;;;2.30;1.90;;;0.90;79.00;;;-0.06;63.01;94700.09;5050648;28;20281;-84
2021/01/27 07:29:34;;;;;;;2.38;1.70;;;0.90;79.00;;;0.08;63.25;94716.13;5056282;28;20218;-83
2021/01/27 07:32:20;;;;;;;1.75;1.60;;;1.00;79.10;;;0.10;62.79;94716.84;5048660;28;20215;-84
2021/01/27 07:35:04;;;;;;;1.70;1.60;;;1.00;79.10;;;0.20;63.01;94719.44;5060671;28;20706;-84
2021/01/27 07:37:39;;;;;;;1.50;1.40;;;1.10;79.20;;;0.26;63.03;94721.47;5055088;28;20200;-84
2021/01/27 07:40:30;;;;;;;1.67;1.48;;;1.10;79.20;;;0.34;63.22;94720.81;5061230;28;20213;-84
2021/01/27 07:43:12;;;;;;;1.67;1.48;;;1.20;79.40;;;0.41;63.06;94714.97;5051712;28;20263;-85
2021/01/27 07:45:43;;;;;;;2.67;1.75;;;1.20;79.40;;;0.48;63.31;94710.91;5062195;28;20363;-85
2021/01/27 07:48:46;;;;;;;1.92;1.67;;;1.30;79.50;;;0.56;63.17;94706.84;5052186;28;20188;-86
2021/01/27 07:51:28;;;;;;;2.00;1.73;;;1.40;79.60;;;0.63;63.10;94706.16;5016524;28;20230;-84
2021/01/27 07:54:11;;;;;;;2.10;1.90;;;1.40;80.20;;;0.70;63.12;94708.22;5031843;28;20196;-83
2021/01/27 07:56:52;;;;;;;1.77;1.58;;;1.40;79.40;;;0.71;62.96;94702.06;5033996;28;20235;-84
2021/01/27 07:59:47;;;;;;;1.70;1.60;;;1.50;79.30;;;0.77;62.95;94702.34;5048542;28;20184;-83
2021/01/27 08:02:22;;;;;;;3.08;1.75;;;1.60;79.50;;;0.81;62.70;94708.06;5032677;28;20642;-82
2021/01/27 08:05:05;;;;;;;2.40;2.20;;;1.60;79.30;;;0.84;62.81;94696.63;5045533;28;20258;-84
2021/01/27 08:07:40;;;;;;;2.70;1.90;;;1.60;79.30;;;0.87;62.44;94699.75;5062509;28;20205;-84
2021/01/27 08:10:30;;;;;;;2.63;2.00;;;1.70;79.20;;;0.89;62.64;94705.63;5045563;28;20225;-84
2021/01/27 08:13:04;;;;;;;4.28;2.65;;;1.80;79.30;;;0.94;62.86;94702.59;5034427;28;20200;-84
2021/01/27 08:15:31;;;;;;;3.72;2.10;;;1.70;79.10;;;0.95;62.67;94704.22;5045552;28;20248;-85
2021/01/27 08:18:13;;;;;;;2.63;2.20;;;1.70;79.20;;;1.01;62.93;94702.88;5062815;28;20204;-84
2021/01/27 08:20:46;;;;;;;2.80;2.30;;;1.70;79.20;;;1.05;62.86;94699.06;5031062;28;20222;-84
2021/01/27 08:23:22;;;;;;;2.97;2.30;;;1.80;80.10;;;1.10;62.93;94696.88;5030784;28;20196;-84
2021/01/27 08:25:59;;;;;;;2.88;2.33;;;1.80;79.40;;;1.12;62.79;94697.56;5063559;28;20302;-85
2021/01/27 08:28:46;;;;;;;3.45;2.50;;;1.90;79.30;;;1.14;62.50;94700.81;5030496;28;20203;-85
2021/01/27 08:31:13;;;;;;;2.80;2.13;;;1.90;79.40;;;1.18;62.59;94701.34;5046607;28;20231;-84
2021/01/27 08:33:46;;;;;;;3.50;2.40;;;1.90;79.20;;;1.21;62.66;94707.06;5056710;28;21106;-85
2021/01/27 08:36:28;;;;;;;2.20;2.00;;;2.00;79.30;;;1.24;62.81;94717.09;5065596;28;20579;-84
2021/01/27 08:38:55;;;;;;;2.72;2.17;;;2.00;79.40;;;1.29;62.82;94711.53;5065284;28;20304;-84
2021/01/27 08:41:43;;;;;;;4.65;2.20;;;2.00;79.40;;;1.32;62.68;94703.50;5064175;28;20224;-84
2021/01/27 08:44:21;;;;;;;2.70;2.15;;;2.10;79.60;;;1.41;63.16;94707.00;5063999;28;20682;-84
2021/01/27 08:47:01;;;;;;;3.95;2.20;;;2.10;79.50;;;1.47;63.04;94709.03;5065824;28;20199;-84
2021/01/27 08:49:37;;;;;;;4.57;2.92;;;2.20;79.60;;;1.56;63.07;94709.94;5067055;28;20270;-84
2021/01/27 08:52:10;;;;;;;3.17;2.60;;;2.20;79.70;;;1.59;62.67;94702.72;5051124;28;20305;-84
2021/01/27 08:54:39;;;;;;;3.70;2.40;;;2.30;79.60;;;1.64;62.80;94702.31;5065603;28;20615;-84
2021/01/27 08:57:38;;;;;;;3.33;2.60;;;2.30;79.50;;;1.65;62.71;94695.34;5067118;28;20200;-84
2021/01/27 09:00:33;;;;;;;3.15;2.55;;;2.30;79.30;;;1.64;62.71;94698.91;5040125;28;20238;-85
2021/01/27 09:03:03;;;;;;;2.85;2.10;;;2.40;79.40;;;1.71;62.88;94702.53;5058831;28;20204;-84
2021/01/27 09:05:30;;;;;;;3.00;2.25;;;2.40;79.30;;;1.76;62.73;94700.38;5049856;28;20282;-84
2021/01/27 09:08:28;;;;;;;3.67;2.17;;;2.60;79.50;;;1.76;62.74;94697.78;5067952;28;20231;-83
2021/01/27 09:11:09;;;;;;;3.17;2.47;;;2.50;79.60;;;1.86;63.05;94701.13;5049873;28;20227;-84
2021/01/27 09:13:42;;;;;;;4.63;3.15;;;2.50;79.60;;;1.94;62.81;94708.16;5057724;28;20235;-85
2021/01/27 09:16:26;;;;;;;4.05;3.13;;;2.60;79.60;;;1.99;62.79;94707.72;5050669;28;20247;-84
2021/01/27 09:19:17;;;;;;;4.78;2.90;;;2.70;79.60;;;2.07;62.70;94721.56;5042746;28;20743;-84
2021/01/27 09:22:21;;;;;;;5.22;3.08;;;2.70;79.50;;;2.12;62.73;94726.31;5085019;28;20199;-84
2021/01/27 09:24:51;;;;;;;3.95;2.88;;;2.80;79.70;;;2.19;62.86;94732.53;5051438;28;20220;-84
2021/01/27 09:27:20;;;;;;;5.13;3.38;;;2.80;79.60;;;2.28;62.67;94737.81;5032460;28;20196;-83
2021/01/27 09:30:04;;;;;;;4.70;3.30;;;2.90;79.60;;;2.34;62.95;94739.81;5069070;28;20589;-83
2021/01/27 09:32:32;;;;;;;4.88;4.00;;;2.90;80.40;;;2.37;63.22;94740.34;5069533;28;20381;-83
2021/01/27 09:35:20;;;;;;;5.18;3.60;;;3.00;80.50;;;2.50;62.72;94742.59;5052513;28;20232;-84
2021/01/27 09:38:04;;;;;;;4.65;3.40;;;3.10;79.90;;;2.59;63.06;94746.06;5045778;28;20204;-83
2021/01/27 09:40:34;;;;;;;4.40;3.60;;;3.10;80.00;;;2.68;62.83;94727.06;5035676;28;20224;-84
2021/01/27 09:43:17;;;;;;;5.28;3.80;;;3.20;80.00;;;2.70;62.70;94732.91;5068595;28;20661;-84
2021/01/27 09:45:48;;;;;;;4.90;3.90;;;3.30;79.90;;;2.80;62.94;94722.47;5067573;28;20253;-84
2021/01/27 09:48:20;;;;;;;5.80;4.20;;;3.30;79.80;;;2.87;62.84;94718.31;5050576;28;20197;-85
2021/01/27 09:51:00;;;;;;;6.40;4.40;;;3.40;79.90;;;2.95;62.40;94717.56;5036980;28;20220;-84
2021/01/27 09:53:36;;;;;;;5.82;4.50;;;3.50;79.90;;;2.94;62.88;94702.19;5029836;28;20212;-85
2021/01/27 09:56:04;;;;;;;7.45;4.35;;;3.50;79.90;;;3.09;62.48;94713.66;5036735;28;20572;-84
2021/01/27 09:58:31;;;;;;;6.90;4.53;;;3.60;80.00;;;3.14;62.81;94716.59;5054470;28;20612;-83
2021/01/27 10:01:06;;;;;;;5.65;4.25;;;3.70;80.00;;;3.20;62.71;94716.00;5037884;28;20227;-84
2021/01/27 10:03:44;;;;;;;7.10;4.55;;;3.70;80.00;;;3.26;62.50;94719.78;5038024;28;20242;-83
2021/01/27 10:06:35;;;;;;;6.30;4.68;;;3.80;79.80;;;3.30;62.17;94717.69;5036495;28;20301;-84
2021/01/27 10:09:21;;;;;;;7.32;4.68;;;3.80;79.30;;;3.28;62.39;94715.22;5036912;28;20200;-84
2021/01/27 10:11:59;;;;;;;6.63;4.78;;;3.80;79.30;;;3.26;62.23;94709.41;5053389;28;20215;-85
2021/01/27 10:14:31;;;;;;;7.70;4.90;;;3.90;79.30;;;3.29;61.91;94703.91;5037530;28;20192;-84
2021/01/27 10:17:03;;;;;;;8.05;5.07;;;3.90;79.20;;;3.29;62.38;94703.09;5053801;28;20223;-85
2021/01/27 10:19:37;;;;;;;6.32;4.18;;;4.00;79.20;;;3.32;62.43;94697.59;5037300;28;20196;-85
2021/01/27 10:22:06;;;;;;;6.03;4.40;;;3.90;79.40;;;3.39;62.60;94697.81;5054549;28;20722;-85
2021/01/27 10:24:53;;;;;;;5.05;3.78;;;4.00;79.60;;;3.45;62.43;94694.59;5036612;28;20662;-85
2021/01/27 10:27:31;;;;;;;5.75;4.13;;;4.00;79.60;;;3.48;62.66;94697.72;5053540;28;20665;-85
2021/01/27 10:29:59;;;;;;;8.30;5.07;;;4.10;79.70;;;3.52;62.59;94693.81;5054306;28;20250;-86
2021/01/27 10:32:37;;;;;;;6.45;5.15;;;4.10;79.50;;;3.53;62.31;94690.28;5052934;28;20760;-84
2021/01/27 10:35:28;;;;;;;7.07;4.93;;;4.20;79.50;;;3.50;62.49;94676.81;5051833;28;20273;-85
2021/01/27 10:38:08;;;;;;;6.20;4.32;;;4.20;79.50;;;3.62;62.70;94678.16;5054208;28;20530;-85
2021/01/27 10:40:35;;;;;;;5.85;4.43;;;4.20;79.60;;;3.60;62.49;94668.91;5053812;28;20216;-84
2021/01/27 10:43:11;;;;;;;6.53;4.90;;;4.40;79.70;;;3.66;62.37;94683.84;5053684;28;20195;-84
2021/01/27 10:45:41;;;;;;;7.00;4.75;;;4.30;79.40;;;3.68;62.17;94676.75;5068587;28;20277;-84
2021/01/27 10:48:10;;;;;;;6.30;4.68;;;4.30;79.30;;;3.68;62.30;94676.75;5036755;28;20199;-85
2021/01/27 10:50:45;;;;;;;7.22;4.85;;;4.30;79.20;;;3.64;62.54;94676.22;5070009;28;20685;-84
2021/01/27 10:53:32;;;;;;;7.45;5.35;;;4.40;79.20;;;3.65;62.73;94679.63;5053921;28;20700;-84
2021/01/27 10:55:59;;;;;;;7.47;5.18;;;4.40;79.10;;;3.66;62.22;94679.50;5036466;28;20208;-85
2021/01/27 10:58:25;;;;;;;7.15;5.10;;;4.30;79.10;;;3.67;62.59;94672.50;5020484;28;20227;-86
2021/01/27 11:00:52;;;;;;;6.38;4.65;;;4.30;79.30;;;3.72;62.26;94672.06;5053292;28;20216;-85
2021/01/27 11:03:19;;;;;;;8.18;5.45;;;4.40;79.30;;;3.74;62.62;94668.34;5053491;28;20204;-85
2021/01/27 11:05:47;;;;;;;9.00;5.57;;;4.40;79.30;;;3.75;62.64;94669.13;5035738;28;20699;-86
2021/01/27 11:08:29;;;;;;;7.90;5.40;;;4.40;79.20;;;3.75;62.57;94662.19;5048146;28;20649;-85
2021/01/27 11:11:00;;;;;;;9.25;6.05;;;4.40;79.00;;;3.73;62.75;94673.69;5032010;28;20224;-85
2021/01/27 11:13:30;;;;;;;7.82;5.50;;;4.40;78.70;;;3.71;62.72;94662.66;5050280;28;20214;-84
2021/01/27 11:15:57;;;;;;;6.75;5.47;;;4.40;78.90;;;3.70;62.85;94661.84;5066655;28;20309;-85
2021/01/27 11:18:24;;;;;;;7.13;5.15;;;4.40;79.00;;;3.62;62.41;94644.44;5036254;28;20200;-86
2021/01/27 11:20:51;;;;;;;6.45;4.80;;;4.40;79.00;;;3.73;62.64;94650.34;5035246;28;20277;-86